Impacts METAR Board INFO
IDs:

KATL - Atlanta/Hartsfield-J, GA, US

Updated at: 1748 UTC 17 Dec 2017
Potential Impact None Slight Moderate High
Time17/05Z 17/06Z 17/07Z 17/08Z 17/09Z 17/10Z 17/11Z 17/12Z 17/13Z 17/14Z 17/15Z 17/16Z 17/17Z
VIS10 10 10 10 10 10 10 10 10 10 10 10 9
CIG-- -- -- 250 250 250 250 250 200 200 90 85 75
CoverSCTSCTFEWBKNBKNBKNBKNBKNOVCOVCOVCOVCOVC
FltCatVFRVFRVFRVFRVFRVFRVFRVFRVFRVFRVFRVFRVFR
WX-------------------------RA
WDir00008009010012013032034070
WSpd0 0 0 0 4 0 3 4 4 6 5 3 4
WGst-- -- -- -- -- -- -- -- -- -- -- -- --
Raw hourly METARs
KATL 170452Z 00000KT 10SM SCT200 05/M02 A3028 RMK AO2 SLP257 T00501017 401171028
KATL 170552Z 00000KT 10SM SCT200 SCT250 03/M01 A3026 RMK AO2 SLP253 T00331011 10078 20028 58005
KATL 170652Z 00000KT 10SM FEW200 FEW250 03/M02 A3025 RMK AO2 SLP248 T00331017
KATL 170752Z 00000KT 10SM SCT200 BKN250 03/M01 A3024 RMK AO2 SLP243 T00331011
KATL 170852Z 08004KT 10SM FEW200 BKN250 03/M01 A3022 RMK AO2 PRESFR SLP239 T00331011 58013
KATL 170952Z 00000KT 10SM FEW200 BKN250 03/M01 A3022 RMK AO2 SLP238 T00281006
KATL 171052Z 09003KT 10SM FEW200 BKN250 03/M01 A3021 RMK AO2 SLP235 T00331011
KATL 171152Z 10004KT 10SM FEW080 SCT200 BKN250 03/M01 A3021 RMK AO2 SLP236 T00281011 10050 20022 55004
KATL 171252Z COR 12004KT 10SM FEW100 SCT150 BKN200 OVC250 03/M01 A3023 RMK AO2 SLP242 T00331006
KATL 171352Z 13006KT 10SM FEW120 SCT150 BKN200 OVC250 05/M01 A3022 RMK AO2 SLP240 VIRGA SE-SW & NW BINOVC T00501011
KATL 171452Z 32005KT 10SM BKN090 OVC250 07/00 A3028 RMK AO2 SLP259 T00720000 53023
KATL 171552Z 34003KT 10SM BKN085 OVC150 08/00 A3029 RMK AO2 SLP262 T00780000
KATL 171652Z 07004KT 9SM -RA BKN075 OVC100 09/00 A3025 RMK AO2 RAB49 SLP247 P0000 T00890000